createdAt,value
2022-11-09T00:04:26.911Z,5.32
2022-11-09T00:09:29.402Z,6.13
2022-11-09T00:14:33.534Z,4.07
2022-11-09T00:19:36.030Z,4.45
2022-11-09T00:24:38.860Z,4.03
2022-11-09T00:29:43.154Z,4.50
2022-11-09T00:34:45.770Z,5.28
2022-11-09T00:39:48.453Z,5.10
2022-11-09T00:44:52.470Z,2.03
2022-11-09T00:49:55.461Z,4.57
2022-11-09T00:54:58.122Z,5.45
2022-11-09T01:00:02.249Z,5.10
2022-11-09T01:05:05.142Z,6.80
2022-11-09T01:10:08.259Z,5.90
2022-11-09T01:15:12.188Z,5.68
2022-11-09T01:20:14.802Z,4.53
2022-11-09T01:25:17.439Z,4.63
2022-11-09T01:30:21.683Z,7.53
2022-11-09T01:35:24.296Z,3.92
2022-11-09T01:40:28.695Z,4.65
2022-11-09T01:45:32.594Z,5.28
2022-11-09T01:50:39.592Z,5.82
2022-11-09T01:55:42.650Z,3.80
2022-11-09T02:00:48.459Z,3.58
2022-11-09T02:05:51.226Z,3.80
2022-11-09T02:10:56.489Z,5.03
2022-11-09T02:16:01.839Z,3.65
2022-11-09T02:21:06.260Z,5.30
2022-11-09T02:26:11.193Z,4.88
2022-11-09T02:31:16.326Z,3.05
2022-11-09T02:36:20.217Z,6.80
2022-11-09T02:41:23.209Z,4.38
2022-11-09T02:46:26.732Z,6.93
2022-11-09T02:51:30.948Z,2.70
2022-11-09T02:56:33.548Z,6.38
2022-11-09T03:01:36.143Z,4.10
2022-11-09T03:06:40.088Z,6.82
2022-11-09T03:11:44.036Z,3.83
2022-11-09T03:16:50.552Z,5.10
2022-11-09T03:21:55.023Z,3.97
2022-11-09T03:26:57.494Z,5.15
2022-11-09T03:32:00.203Z,7.20
2022-11-09T03:37:04.046Z,7.13
2022-11-09T03:42:06.728Z,5.25
2022-11-09T03:47:09.233Z,2.72
2022-11-09T03:52:13.227Z,4.63
2022-11-09T03:57:15.731Z,5.55
2022-11-09T04:02:18.387Z,4.93
2022-11-09T04:07:22.241Z,4.17
2022-11-09T04:12:24.803Z,3.80
2022-11-09T04:17:27.762Z,4.87
2022-11-09T04:22:31.594Z,6.28
2022-11-09T04:27:34.040Z,5.03
2022-11-09T04:32:36.473Z,6.50
2022-11-09T04:37:40.398Z,4.60
2022-11-09T04:42:42.897Z,7.30
2022-11-09T04:47:45.797Z,9.47
2022-11-09T04:52:49.794Z,5.95
2022-11-09T04:57:52.325Z,7.47
2022-11-09T05:02:54.802Z,4.63
2022-11-09T05:07:59.031Z,6.93
2022-11-09T05:13:01.969Z,7.57
2022-11-09T05:18:05.122Z,6.10
2022-11-09T05:23:26.241Z,6.72
2022-11-09T05:28:28.902Z,6.22
2022-11-09T05:33:31.393Z,6.60
2022-11-09T05:38:35.414Z,5.47
2022-11-09T05:43:38.208Z,4.65
2022-11-09T05:48:41.123Z,4.75
2022-11-09T05:53:46.746Z,5.35
2022-11-09T05:58:49.593Z,6.80
2022-11-09T06:03:54.564Z,11.23
2022-11-09T06:08:58.444Z,8.68
2022-11-09T06:14:02.146Z,7.38
2022-11-09T06:19:04.629Z,10.80
2022-11-09T06:24:08.827Z,8.97
2022-11-09T06:29:11.474Z,10.70
2022-11-09T06:34:13.960Z,9.47
2022-11-09T06:39:17.927Z,11.02
2022-11-09T06:44:20.480Z,10.32
2022-11-09T06:49:23.012Z,8.07
2022-11-09T06:54:28.069Z,6.27
2022-11-09T06:59:30.840Z,9.52
2022-11-09T07:04:33.313Z,9.80
2022-11-09T07:09:37.183Z,9.27
2022-11-09T07:14:39.790Z,9.27
2022-11-09T07:19:42.317Z,9.67
2022-11-09T07:24:46.590Z,12.00
2022-11-09T07:29:49.142Z,8.40
2022-11-09T07:34:51.602Z,6.53
2022-11-09T07:39:55.588Z,7.33
2022-11-09T07:44:58.470Z,7.35
2022-11-09T07:50:01.151Z,3.72
2022-11-09T07:55:05.454Z,6.38
2022-11-09T08:00:08.942Z,8.93
2022-11-09T08:05:11.832Z,5.22
2022-11-09T08:10:16.935Z,7.57
2022-11-09T08:15:19.482Z,8.70
2022-11-09T08:20:22.588Z,7.22
2022-11-09T08:30:31.288Z,10.52
2022-11-09T08:35:34.208Z,6.45
2022-11-09T08:40:36.931Z,6.03
2022-11-09T08:45:41.529Z,9.38
2022-11-09T08:50:45.227Z,8.45
2022-11-09T08:55:49.668Z,8.05
2022-11-09T09:00:53.847Z,6.18
2022-11-09T09:05:56.537Z,6.75
2022-11-09T09:11:02.212Z,5.93
2022-11-09T09:16:13.886Z,8.10
2022-11-09T09:21:16.493Z,12.07
2022-11-09T09:26:22.508Z,5.80
2022-11-09T09:31:30.532Z,5.45
2022-11-09T09:36:37.529Z,6.68
2022-11-09T09:41:41.895Z,7.53
2022-11-09T09:46:49.167Z,6.18
2022-11-09T09:51:57.386Z,6.25
2022-11-09T09:57:02.426Z,7.85
2022-11-09T10:02:12.590Z,6.93
2022-11-09T10:07:19.166Z,7.15
2022-11-09T10:12:25.974Z,5.30
2022-11-09T10:17:36.973Z,10.07
2022-11-09T10:22:46.596Z,7.07
2022-11-09T10:27:51.917Z,8.90
2022-11-09T10:32:58.170Z,10.73
2022-11-09T10:38:00.720Z,5.53
2022-11-09T10:43:05.468Z,5.72
2022-11-09T10:48:09.992Z,4.20
2022-11-09T10:53:15.921Z,8.30
2022-11-09T10:58:24.308Z,7.95
2022-11-09T11:03:28.741Z,6.80
2022-11-09T11:08:33.939Z,9.57
2022-11-09T11:13:36.577Z,3.75
2022-11-09T11:18:45.740Z,5.03
2022-11-09T11:24:04.122Z,10.65
2022-11-09T11:29:12.349Z,5.57
2022-11-09T11:34:38.539Z,9.05
2022-11-09T11:45:02.935Z,4.82
2022-11-09T11:50:32.518Z,10.95
2022-11-09T11:55:43.433Z,4.13
2022-11-09T12:00:49.373Z,8.40
2022-11-09T12:05:59.607Z,5.65
2022-11-09T12:11:08.935Z,5.15
2022-11-09T12:16:13.983Z,5.00
2022-11-09T12:21:18.815Z,7.45
2022-11-09T12:26:25.440Z,7.70
2022-11-09T12:31:33.347Z,4.38
2022-11-09T12:36:39.823Z,10.68
2022-11-09T12:41:47.706Z,7.18
2022-11-09T12:46:52.250Z,4.13
2022-11-09T12:51:58.796Z,6.80
2022-11-09T12:57:04.892Z,6.88
2022-11-09T13:02:07.705Z,4.65
2022-11-09T13:07:27.894Z,7.40
2022-11-09T13:12:40.625Z,8.93
2022-11-09T13:17:53.197Z,4.00
2022-11-09T13:22:59.777Z,3.75
2022-11-09T13:28:03.976Z,4.65
2022-11-09T13:33:20.457Z,4.75
2022-11-09T13:38:23.768Z,7.40
2022-11-09T13:48:35.727Z,6.18
2022-11-09T13:53:49.772Z,2.60
2022-11-09T13:58:53.494Z,3.15
2022-11-09T14:03:58.110Z,3.70
2022-11-09T14:09:01.091Z,4.88
2022-11-09T14:14:11.234Z,5.78
2022-11-09T14:19:21.105Z,7.55
2022-11-09T14:24:24.784Z,3.08
2022-11-09T14:29:27.340Z,2.72
2022-11-09T14:34:31.451Z,5.00
2022-11-09T14:39:34.678Z,6.20
2022-11-09T14:49:46.209Z,9.32
2022-11-09T14:54:49.041Z,3.83
2022-11-09T14:59:51.939Z,6.65
2022-11-09T15:04:57.295Z,5.70
2022-11-09T15:10:01.497Z,3.63
2022-11-09T15:15:06.285Z,3.75
2022-11-09T15:25:54.227Z,6.78
2022-11-09T15:31:08.420Z,4.13
2022-11-09T15:36:20.812Z,5.85
2022-11-09T15:41:25.832Z,4.88
2022-11-09T15:46:29.976Z,3.22
2022-11-09T15:51:32.371Z,3.95
2022-11-09T15:56:36.181Z,6.10
2022-11-09T16:01:39.978Z,3.63
2022-11-09T16:06:46.341Z,4.57
2022-11-09T16:11:51.214Z,5.85
2022-11-09T16:16:53.593Z,6.43
2022-11-09T16:21:55.985Z,3.53
2022-11-09T16:26:59.784Z,2.30
2022-11-09T16:32:02.223Z,3.90
2022-11-09T16:37:05.693Z,5.13
2022-11-09T16:42:11.019Z,6.50
2022-11-09T16:47:15.202Z,3.83
2022-11-09T16:52:17.658Z,6.38
2022-11-09T16:57:21.485Z,4.77
2022-11-09T17:02:25.050Z,5.57
2022-11-09T17:07:27.930Z,8.20
2022-11-09T17:12:32.150Z,6.60
2022-11-09T17:17:36.719Z,3.67
2022-11-09T17:22:44.708Z,7.57
2022-11-09T17:27:49.949Z,5.43
2022-11-09T17:32:54.546Z,8.57
2022-11-09T17:37:57.028Z,8.50
2022-11-09T17:43:00.810Z,6.37
2022-11-09T17:48:04.472Z,6.43
2022-11-09T17:53:07.005Z,3.65
2022-11-09T17:58:11.858Z,5.00
2022-11-09T18:03:14.393Z,5.40
2022-11-09T18:08:16.822Z,9.40
2022-11-09T18:13:20.704Z,7.00
2022-11-09T18:18:42.035Z,6.53
2022-11-09T18:23:45.020Z,4.30
2022-11-09T18:28:48.847Z,6.95
2022-11-09T18:33:51.352Z,5.45
2022-11-09T18:38:55.687Z,4.57
2022-11-09T18:43:59.456Z,11.30
2022-11-09T18:49:01.868Z,4.85
2022-11-09T18:54:04.366Z,6.67
2022-11-09T18:59:08.467Z,5.83
2022-11-09T19:04:12.873Z,5.82
2022-11-09T19:09:34.822Z,8.40
2022-11-09T19:14:41.058Z,6.45
2022-11-09T19:19:43.676Z,6.20
2022-11-09T19:24:46.316Z,12.67
2022-11-09T19:29:50.082Z,10.60
2022-11-09T19:34:52.511Z,11.60
2022-11-09T19:39:54.999Z,8.32
2022-11-09T19:44:59.074Z,9.57
2022-11-09T19:50:01.600Z,8.07
2022-11-09T19:55:04.350Z,8.70
2022-11-09T20:00:11.429Z,11.33
2022-11-09T20:05:13.880Z,10.88
2022-11-09T20:10:16.562Z,10.55
2022-11-09T20:15:20.495Z,9.70
2022-11-09T20:20:24.059Z,12.88
2022-11-09T20:25:29.433Z,12.00
2022-11-09T20:30:33.361Z,8.85
2022-11-09T20:35:36.965Z,12.68
2022-11-09T20:40:39.332Z,12.38
2022-11-09T20:45:43.181Z,14.25
2022-11-09T20:50:45.709Z,16.58
2022-11-09T20:55:48.417Z,12.03
2022-11-09T21:01:01.379Z,13.63
2022-11-09T21:06:04.824Z,13.97
2022-11-09T21:16:11.988Z,13.88
2022-11-09T21:21:15.699Z,9.98
2022-11-09T21:26:35.881Z,11.63
2022-11-09T21:31:39.763Z,17.55
2022-11-09T21:36:42.808Z,11.40
2022-11-09T21:41:45.309Z,12.38
2022-11-09T21:46:50.068Z,12.32
2022-11-09T21:51:52.467Z,10.45
2022-11-09T21:56:55.049Z,12.13
2022-11-09T22:01:58.962Z,12.93
2022-11-09T22:07:01.603Z,12.60
2022-11-09T22:12:22.495Z,12.47
2022-11-09T22:17:26.782Z,14.93
2022-11-09T22:22:30.574Z,13.57
2022-11-09T22:27:33.625Z,12.32
2022-11-09T22:32:39.485Z,16.75
2022-11-09T22:37:41.990Z,14.45
2022-11-09T22:42:44.469Z,13.70
2022-11-09T22:47:48.276Z,17.17
2022-11-09T22:52:53.915Z,18.48
2022-11-09T22:57:56.773Z,23.13
2022-11-09T23:03:00.801Z,22.00
2022-11-09T23:08:03.603Z,13.45
2022-11-09T23:13:06.507Z,19.37
2022-11-09T23:18:28.570Z,18.38
2022-11-09T23:23:31.051Z,14.80
2022-11-09T23:28:34.343Z,20.23
2022-11-09T23:33:38.369Z,16.73
2022-11-09T23:38:41.277Z,18.75
2022-11-09T23:43:48.668Z,19.08
2022-11-09T23:48:53.344Z,18.73
2022-11-09T23:53:55.785Z,17.80
2022-11-09T23:58:59.267Z,12.98
